createdAt,value
2018-02-25T00:00:07.844Z,2.00
2018-02-25T00:01:08.051Z,2.00
2018-02-25T00:02:08.262Z,2.20
2018-02-25T00:03:08.477Z,2.10
2018-02-25T00:04:08.688Z,2.10
2018-02-25T00:05:08.897Z,2.20
2018-02-25T00:06:09.108Z,1.80
2018-02-25T00:07:09.319Z,1.90
2018-02-25T00:08:09.532Z,2.10
2018-02-25T00:09:09.746Z,2.10
2018-02-25T00:10:09.954Z,1.90
2018-02-25T00:11:10.167Z,1.90
2018-02-25T00:12:10.378Z,2.00
2018-02-25T00:13:10.590Z,2.00
2018-02-25T00:14:10.805Z,2.10
2018-02-25T00:15:11.013Z,2.10
2018-02-25T00:16:11.224Z,2.00
2018-02-25T00:17:11.436Z,2.20
2018-02-25T00:18:11.647Z,2.10
2018-02-25T00:19:11.859Z,2.10
2018-02-25T00:20:12.070Z,2.10
2018-02-25T00:21:12.282Z,2.00
2018-02-25T00:22:12.490Z,2.00
2018-02-25T00:23:12.702Z,2.00
2018-02-25T00:24:12.915Z,1.80
2018-02-25T00:25:13.125Z,2.20
2018-02-25T00:26:13.338Z,2.00
2018-02-25T00:27:13.549Z,2.10
2018-02-25T00:28:13.760Z,2.20
2018-02-25T00:29:13.972Z,2.00
2018-02-25T00:30:14.191Z,1.90
2018-02-25T00:31:14.396Z,2.10
2018-02-25T00:32:14.608Z,2.00
2018-02-25T00:33:14.819Z,2.10
2018-02-25T00:34:15.030Z,2.10
2018-02-25T00:35:15.242Z,2.00
2018-02-25T00:36:15.457Z,2.10
2018-02-25T00:37:15.665Z,2.00
2018-02-25T00:38:15.877Z,1.70
2018-02-25T00:39:16.089Z,1.90
2018-02-25T00:40:16.301Z,2.10
2018-02-25T00:41:16.512Z,1.80
2018-02-25T00:42:16.725Z,2.10
2018-02-25T00:43:16.933Z,1.90
2018-02-25T00:44:17.149Z,1.90
2018-02-25T00:45:17.357Z,2.10
2018-02-25T00:46:17.569Z,2.10
2018-02-25T00:47:17.789Z,2.20
2018-02-25T00:48:17.990Z,1.90
2018-02-25T00:49:18.201Z,2.10
2018-02-25T00:50:18.415Z,2.10
2018-02-25T00:51:18.626Z,2.30
2018-02-25T00:52:18.839Z,2.20
2018-02-25T00:53:19.050Z,2.20
2018-02-25T00:54:19.261Z,1.90
2018-02-25T00:55:19.473Z,2.10
2018-02-25T00:56:19.733Z,2.00
2018-02-25T00:57:19.887Z,1.90
2018-02-25T00:58:20.099Z,2.00
2018-02-25T00:59:20.311Z,2.10
2018-02-25T01:00:20.523Z,1.90
2018-02-25T01:01:20.738Z,2.00
2018-02-25T01:02:20.945Z,2.00
2018-02-25T01:03:21.157Z,2.10
2018-02-25T01:04:21.368Z,2.10
2018-02-25T01:05:21.581Z,2.00
2018-02-25T01:06:21.793Z,1.90
2018-02-25T01:07:22.004Z,2.00
2018-02-25T01:08:22.215Z,2.10
2018-02-25T01:09:22.426Z,2.00
2018-02-25T01:10:22.638Z,2.00
2018-02-25T01:11:22.849Z,2.20
2018-02-25T01:12:23.062Z,2.20
2018-02-25T01:13:23.271Z,2.10
2018-02-25T01:14:23.486Z,2.10
2018-02-25T01:15:23.697Z,2.10
2018-02-25T01:16:23.909Z,2.10
2018-02-25T01:17:24.117Z,2.00
2018-02-25T01:18:24.335Z,2.10
2018-02-25T01:19:24.544Z,2.00
2018-02-25T01:20:24.756Z,2.00
2018-02-25T01:21:24.968Z,2.10
2018-02-25T01:22:25.179Z,2.00
2018-02-25T01:23:25.391Z,2.10
2018-02-25T01:24:25.608Z,2.30
2018-02-25T01:25:25.819Z,2.20
2018-02-25T01:26:26.025Z,1.90
2018-02-25T01:27:26.247Z,1.80
2018-02-25T01:28:26.448Z,2.00
2018-02-25T01:29:26.661Z,2.10
2018-02-25T01:30:26.873Z,2.10
2018-02-25T01:31:27.086Z,1.90
2018-02-25T01:32:27.308Z,2.10
2018-02-25T01:33:27.512Z,2.20
2018-02-25T01:34:27.722Z,2.20
2018-02-25T01:35:27.934Z,2.10
2018-02-25T01:36:28.147Z,2.10
2018-02-25T01:37:28.357Z,2.00
2018-02-25T01:38:28.570Z,2.10
2018-02-25T01:39:28.782Z,2.00
2018-02-25T01:40:28.994Z,2.30
2018-02-25T01:41:29.207Z,2.10
2018-02-25T01:42:29.418Z,2.10
2018-02-25T01:43:29.629Z,2.20
2018-02-25T01:44:29.840Z,2.10
2018-02-25T01:45:30.053Z,2.10
2018-02-25T01:46:30.264Z,2.10
2018-02-25T01:47:30.479Z,2.20
2018-02-25T01:48:30.687Z,1.90
2018-02-25T01:49:30.899Z,2.10
2018-02-25T01:50:31.114Z,2.10
2018-02-25T01:51:31.324Z,2.00
2018-02-25T01:52:31.536Z,2.10
2018-02-25T01:53:31.749Z,2.30
2018-02-25T01:54:31.959Z,2.30
2018-02-25T01:55:32.171Z,2.20
2018-02-25T01:56:32.383Z,2.10
2018-02-25T01:57:32.595Z,2.20
2018-02-25T01:58:32.805Z,2.20
2018-02-25T01:59:33.022Z,2.20
2018-02-25T02:00:33.227Z,2.10
2018-02-25T02:01:33.452Z,2.20
2018-02-25T02:02:33.662Z,2.20
2018-02-25T02:03:33.874Z,2.10
2018-02-25T02:04:34.086Z,2.10
2018-02-25T02:05:34.316Z,2.40
2018-02-25T02:06:34.508Z,2.20
2018-02-25T02:07:34.718Z,2.10
2018-02-25T02:08:34.931Z,2.10
2018-02-25T02:09:35.142Z,2.20
2018-02-25T02:10:35.354Z,2.10
2018-02-25T02:11:35.565Z,2.20
2018-02-25T02:12:35.777Z,2.10
2018-02-25T02:13:35.991Z,2.10
2018-02-25T02:14:36.200Z,2.20
2018-02-25T02:15:36.415Z,2.20
2018-02-25T02:16:36.621Z,2.20
2018-02-25T02:17:36.833Z,2.10
2018-02-25T02:18:37.044Z,2.30
2018-02-25T02:19:37.261Z,1.90
2018-02-25T02:20:37.465Z,2.30
2018-02-25T02:21:37.677Z,2.20
2018-02-25T02:22:37.888Z,2.20
2018-02-25T02:23:38.100Z,2.10
2018-02-25T02:24:38.312Z,2.30
2018-02-25T02:25:38.523Z,2.10
2018-02-25T02:26:38.736Z,2.20
2018-02-25T02:27:38.944Z,2.20
2018-02-25T02:28:39.156Z,2.20
2018-02-25T02:29:39.371Z,2.10
2018-02-25T02:30:39.579Z,2.20
2018-02-25T02:31:39.790Z,2.20
2018-02-25T02:32:40.003Z,2.10
2018-02-25T02:33:40.215Z,2.30
2018-02-25T02:34:40.426Z,2.20
2018-02-25T02:35:40.655Z,2.40
2018-02-25T02:36:40.857Z,2.10
2018-02-25T02:37:41.068Z,2.20
2018-02-25T02:38:41.280Z,2.30
2018-02-25T02:39:41.535Z,2.20
2018-02-25T02:40:41.702Z,2.10
2018-02-25T02:41:41.921Z,2.10
2018-02-25T02:42:42.125Z,2.20
2018-02-25T02:43:42.339Z,2.00
2018-02-25T02:44:42.547Z,2.40
2018-02-25T02:45:42.763Z,2.50
2018-02-25T02:46:42.973Z,2.30
2018-02-25T02:47:43.185Z,2.10
2018-02-25T02:48:43.397Z,2.50
2018-02-25T02:49:43.610Z,2.40
2018-02-25T02:50:43.819Z,2.40
2018-02-25T02:51:44.032Z,2.10
2018-02-25T02:52:44.242Z,2.40
2018-02-25T02:53:44.455Z,2.40
2018-02-25T02:54:44.667Z,2.30
2018-02-25T02:55:44.880Z,2.40
2018-02-25T02:56:45.091Z,2.40
2018-02-25T02:57:45.302Z,2.30
2018-02-25T02:58:45.514Z,2.60
2018-02-25T02:59:45.727Z,2.20
2018-02-25T03:00:45.937Z,2.20
2018-02-25T03:01:46.148Z,2.40
2018-02-25T03:02:46.361Z,2.20
2018-02-25T03:03:46.572Z,2.70
2018-02-25T03:04:46.783Z,2.40
2018-02-25T03:05:46.996Z,2.20
2018-02-25T03:06:47.215Z,2.40
2018-02-25T03:07:47.420Z,2.30
2018-02-25T03:08:47.640Z,2.40
2018-02-25T03:09:47.843Z,2.30
2018-02-25T03:10:48.052Z,2.40
2018-02-25T03:11:48.263Z,2.50
2018-02-25T03:12:48.476Z,2.30
2018-02-25T03:13:48.688Z,2.30
2018-02-25T03:14:48.899Z,2.20
2018-02-25T03:15:49.112Z,2.70
2018-02-25T03:16:49.322Z,2.40
2018-02-25T03:17:49.534Z,2.40
2018-02-25T03:18:49.746Z,2.30
2018-02-25T03:19:49.954Z,2.30
2018-02-25T03:20:50.166Z,2.40
2018-02-25T03:21:50.376Z,2.40
2018-02-25T03:22:50.589Z,2.40
2018-02-25T03:23:50.799Z,2.50
2018-02-25T03:24:51.011Z,2.40
2018-02-25T03:25:51.222Z,2.50
2018-02-25T03:26:51.487Z,2.30
2018-02-25T03:27:51.649Z,2.30
2018-02-25T03:28:51.857Z,2.50
2018-02-25T03:29:52.068Z,2.10
2018-02-25T03:30:52.281Z,2.40
2018-02-25T03:31:52.491Z,2.60
2018-02-25T03:32:52.701Z,2.50
2018-02-25T03:33:52.911Z,2.30
2018-02-25T03:34:53.125Z,2.30
2018-02-25T03:35:53.337Z,2.40
2018-02-25T03:36:53.548Z,2.20
2018-02-25T03:37:53.761Z,2.30
2018-02-25T03:38:53.967Z,2.50
2018-02-25T03:39:54.179Z,2.50
2018-02-25T03:40:54.390Z,2.40
2018-02-25T03:41:54.604Z,2.70
2018-02-25T03:42:54.812Z,2.30
2018-02-25T03:43:55.031Z,2.30
2018-02-25T03:44:55.235Z,2.40
2018-02-25T03:45:55.445Z,2.60
2018-02-25T03:46:55.657Z,2.20
2018-02-25T03:47:55.869Z,2.40
2018-02-25T03:48:56.080Z,2.30
2018-02-25T03:49:56.296Z,2.50
2018-02-25T03:50:56.507Z,2.40
2018-02-25T03:51:56.719Z,2.60
2018-02-25T03:52:56.932Z,2.50
2018-02-25T03:53:57.148Z,2.50
2018-02-25T03:54:57.361Z,2.30
2018-02-25T03:55:57.568Z,2.40
2018-02-25T03:56:57.781Z,2.40
2018-02-25T03:57:57.993Z,2.60
2018-02-25T03:58:58.208Z,2.40
2018-02-25T03:59:58.403Z,2.40
2018-02-25T04:00:58.615Z,2.50
2018-02-25T04:01:58.827Z,2.60
2018-02-25T04:02:59.038Z,2.50
2018-02-25T04:03:59.250Z,2.40
2018-02-25T04:04:59.460Z,2.70
2018-02-25T04:05:59.673Z,2.60
2018-02-25T04:06:59.885Z,2.80
2018-02-25T04:08:00.097Z,2.30
2018-02-25T04:09:00.311Z,2.60
2018-02-25T04:10:00.518Z,2.70
2018-02-25T04:11:00.729Z,2.40
2018-02-25T04:12:00.943Z,2.30
2018-02-25T04:13:01.155Z,2.70
2018-02-25T04:14:01.367Z,2.40
2018-02-25T04:15:01.579Z,2.40
2018-02-25T04:16:01.790Z,2.50
2018-02-25T04:17:02.003Z,2.60
2018-02-25T04:18:02.214Z,2.70
2018-02-25T04:19:02.425Z,2.50
2018-02-25T04:20:02.637Z,2.60
2018-02-25T04:21:02.855Z,2.40
2018-02-25T04:22:03.062Z,2.30
2018-02-25T04:23:03.271Z,2.80
2018-02-25T04:24:03.481Z,2.70
2018-02-25T04:25:03.693Z,2.50
2018-02-25T04:26:03.904Z,2.60
2018-02-25T04:27:04.116Z,2.60
2018-02-25T04:28:04.338Z,2.70
2018-02-25T04:29:04.538Z,2.40
2018-02-25T04:30:04.749Z,2.80
2018-02-25T04:31:04.964Z,2.50
2018-02-25T04:32:05.178Z,2.70
2018-02-25T04:33:05.390Z,2.80
2018-02-25T04:34:05.600Z,2.50
2018-02-25T04:35:05.811Z,2.60
2018-02-25T04:36:06.024Z,2.40
2018-02-25T04:37:06.239Z,2.60
2018-02-25T04:38:06.454Z,2.50
2018-02-25T04:39:06.695Z,2.90
2018-02-25T04:40:06.873Z,2.60
2018-02-25T04:41:07.085Z,2.60
2018-02-25T04:42:07.298Z,2.70
2018-02-25T04:43:07.510Z,2.80
2018-02-25T04:44:07.720Z,2.70
2018-02-25T04:45:07.932Z,2.70
2018-02-25T04:46:08.143Z,2.60
2018-02-25T04:47:08.355Z,2.60
2018-02-25T04:48:08.566Z,2.40
2018-02-25T04:49:08.792Z,2.80
2018-02-25T04:50:09.004Z,2.60
2018-02-25T04:51:09.215Z,2.70
2018-02-25T04:52:09.426Z,3.00
2018-02-25T04:53:09.638Z,2.80
2018-02-25T04:54:09.850Z,2.50
2018-02-25T04:55:10.061Z,2.70
2018-02-25T04:56:10.273Z,2.50
2018-02-25T04:57:10.485Z,2.70
2018-02-25T04:58:10.696Z,2.90
2018-02-25T04:59:10.909Z,2.60
2018-02-25T05:00:11.120Z,2.90
2018-02-25T05:01:11.332Z,2.60
2018-02-25T05:02:11.544Z,2.60
2018-02-25T05:03:11.754Z,2.70
2018-02-25T05:04:11.965Z,2.80
2018-02-25T05:05:12.174Z,2.90
2018-02-25T05:06:12.386Z,2.60
2018-02-25T05:07:12.597Z,2.50
2018-02-25T05:08:12.808Z,2.90
2018-02-25T05:09:13.020Z,2.90
2018-02-25T05:10:13.231Z,2.50
2018-02-25T05:11:13.442Z,2.60
2018-02-25T05:12:13.655Z,2.70
2018-02-25T05:13:13.866Z,2.70
2018-02-25T05:14:14.078Z,2.80
2018-02-25T05:15:14.293Z,2.80
2018-02-25T05:16:14.501Z,2.60
2018-02-25T05:17:14.713Z,2.80
2018-02-25T05:18:14.925Z,2.60
2018-02-25T05:19:15.135Z,2.70
2018-02-25T05:20:15.346Z,2.80
2018-02-25T05:21:15.558Z,2.80
2018-02-25T05:22:15.770Z,2.80
2018-02-25T05:23:15.980Z,2.80
2018-02-25T05:24:16.193Z,2.60
2018-02-25T05:25:16.404Z,2.50
2018-02-25T05:26:16.623Z,2.70
2018-02-25T05:27:16.828Z,2.80
2018-02-25T05:28:17.045Z,2.60
2018-02-25T05:29:17.249Z,2.80
2018-02-25T05:30:17.464Z,3.00
2018-02-25T05:31:17.672Z,2.90
2018-02-25T05:32:17.885Z,2.60
2018-02-25T05:33:18.095Z,2.80
2018-02-25T05:34:18.305Z,2.60
2018-02-25T05:35:18.517Z,3.00
2018-02-25T05:36:18.729Z,2.80
2018-02-25T05:37:18.939Z,2.70
2018-02-25T05:38:19.151Z,2.70
2018-02-25T05:39:19.362Z,2.70
2018-02-25T05:40:19.573Z,2.80
2018-02-25T05:41:19.791Z,2.90
2018-02-25T05:42:19.997Z,2.50
2018-02-25T05:43:20.200Z,2.70
2018-02-25T05:44:20.420Z,2.70
2018-02-25T05:45:20.631Z,2.60
2018-02-25T05:46:20.843Z,2.70
2018-02-25T05:47:21.054Z,2.80
2018-02-25T05:48:21.266Z,2.80
2018-02-25T05:49:21.477Z,2.80
2018-02-25T05:50:21.690Z,2.80
2018-02-25T05:51:21.900Z,3.10
2018-02-25T05:52:22.112Z,2.60
2018-02-25T05:53:22.324Z,2.80
2018-02-25T05:54:22.534Z,2.90
2018-02-25T05:55:22.746Z,3.00
2018-02-25T05:56:22.962Z,2.80
2018-02-25T05:57:23.176Z,2.90
2018-02-25T05:58:23.386Z,2.80
2018-02-25T05:59:23.597Z,2.60
2018-02-25T06:00:23.808Z,2.80
2018-02-25T06:01:24.019Z,2.80
2018-02-25T06:02:24.230Z,2.90
2018-02-25T06:03:24.446Z,2.70
2018-02-25T06:04:24.651Z,2.50
2018-02-25T06:05:24.864Z,2.70
2018-02-25T06:06:25.076Z,2.80
2018-02-25T06:07:25.288Z,3.00
2018-02-25T06:08:25.501Z,2.80
2018-02-25T06:09:25.714Z,2.80
2018-02-25T06:10:25.929Z,2.50
2018-02-25T06:11:26.370Z,2.80
2018-02-25T06:12:26.352Z,2.90
2018-02-25T06:13:26.566Z,3.00
2018-02-25T06:14:26.779Z,2.70
2018-02-25T06:15:26.992Z,2.70
2018-02-25T06:16:27.204Z,2.70
2018-02-25T06:17:27.420Z,2.90
2018-02-25T06:18:27.627Z,3.00
2018-02-25T06:19:27.838Z,2.80
2018-02-25T06:20:28.055Z,2.70
2018-02-25T06:21:28.268Z,3.00
2018-02-25T06:22:28.477Z,2.60
2018-02-25T06:23:28.689Z,2.90
2018-02-25T06:24:28.901Z,2.70
2018-02-25T06:25:29.113Z,2.70
2018-02-25T06:26:29.327Z,3.00
2018-02-25T06:27:29.546Z,2.80
2018-02-25T06:28:29.761Z,2.80
2018-02-25T06:29:29.959Z,2.80
2018-02-25T06:30:30.171Z,2.80
2018-02-25T06:31:30.383Z,2.90
2018-02-25T06:32:30.593Z,3.10
2018-02-25T06:33:30.806Z,2.90
2018-02-25T06:34:31.017Z,2.70
2018-02-25T06:35:31.228Z,3.00
2018-02-25T06:36:31.438Z,2.70
2018-02-25T06:37:31.653Z,2.90
2018-02-25T06:38:31.864Z,3.00
2018-02-25T06:39:32.076Z,2.60
2018-02-25T06:40:32.279Z,2.70
2018-02-25T06:41:32.494Z,2.90
2018-02-25T06:42:32.702Z,3.00
2018-02-25T06:43:32.914Z,3.00
2018-02-25T06:44:33.125Z,2.90
2018-02-25T06:45:33.336Z,3.00
2018-02-25T06:46:33.550Z,2.60
2018-02-25T06:47:33.759Z,2.80
2018-02-25T06:48:33.971Z,2.80
2018-02-25T06:49:34.182Z,2.80
2018-02-25T06:50:34.394Z,2.80
2018-02-25T06:51:34.605Z,2.70
2018-02-25T06:52:34.818Z,2.80
2018-02-25T06:53:35.029Z,3.10
2018-02-25T06:54:35.241Z,2.80
2018-02-25T06:55:35.452Z,2.70
2018-02-25T06:56:35.664Z,3.00
2018-02-25T06:57:35.876Z,2.80
2018-02-25T06:58:36.087Z,3.00
2018-02-25T06:59:36.313Z,2.90
2018-02-25T07:00:36.510Z,2.90
2018-02-25T07:01:36.722Z,2.90
2018-02-25T07:02:36.920Z,3.00
2018-02-25T07:03:37.138Z,3.10
2018-02-25T07:04:37.350Z,2.80
2018-02-25T07:05:37.560Z,2.90
2018-02-25T07:06:37.771Z,3.00
2018-02-25T07:07:37.982Z,2.70
2018-02-25T07:08:38.194Z,3.00
2018-02-25T07:09:38.407Z,2.80
2018-02-25T07:10:38.619Z,2.90
2018-02-25T07:11:38.826Z,3.00
2018-02-25T07:12:39.071Z,2.90
2018-02-25T07:13:39.288Z,2.80
2018-02-25T07:14:39.495Z,2.60
2018-02-25T07:15:39.713Z,3.10
2018-02-25T07:16:39.921Z,2.70
2018-02-25T07:17:40.131Z,2.90
2018-02-25T07:18:40.343Z,2.70
2018-02-25T07:19:40.558Z,2.90
2018-02-25T07:20:40.767Z,2.70
2018-02-25T07:21:40.979Z,2.70
2018-02-25T07:22:41.188Z,2.80
2018-02-25T07:23:41.397Z,2.90
2018-02-25T07:24:41.614Z,2.80
2018-02-25T07:25:41.820Z,2.60
2018-02-25T07:26:42.046Z,2.70
2018-02-25T07:27:42.235Z,2.90
2018-02-25T07:28:42.444Z,2.70
2018-02-25T07:29:42.656Z,2.90
2018-02-25T07:30:42.867Z,2.90
2018-02-25T07:31:43.131Z,2.90
2018-02-25T07:32:43.291Z,2.80
2018-02-25T07:33:43.502Z,2.90
2018-02-25T07:34:43.720Z,2.70
2018-02-25T07:35:43.926Z,2.70
2018-02-25T07:36:44.140Z,2.70
2018-02-25T07:37:44.349Z,2.60
2018-02-25T07:38:44.564Z,2.70
2018-02-25T07:39:44.763Z,2.90
2018-02-25T07:40:44.971Z,2.70
2018-02-25T07:41:45.183Z,3.00
2018-02-25T07:42:45.396Z,2.80
2018-02-25T07:43:45.603Z,2.60
2018-02-25T07:44:45.814Z,2.70
2018-02-25T07:45:46.026Z,2.90
2018-02-25T07:46:46.237Z,3.00
2018-02-25T07:47:46.450Z,2.90
2018-02-25T07:48:46.660Z,2.80
2018-02-25T07:49:46.872Z,2.60
2018-02-25T07:50:47.083Z,2.80
2018-02-25T07:51:47.295Z,2.90
2018-02-25T07:52:47.511Z,2.60
2018-02-25T07:53:47.718Z,2.80
2018-02-25T07:54:47.928Z,2.70
2018-02-25T07:55:48.140Z,2.60
2018-02-25T07:56:48.362Z,2.70
2018-02-25T07:57:48.596Z,2.80
2018-02-25T07:58:48.785Z,2.80
2018-02-25T07:59:48.993Z,2.70
2018-02-25T08:00:49.207Z,2.80
2018-02-25T08:01:49.419Z,2.80
2018-02-25T08:02:49.631Z,2.80
2018-02-25T08:03:49.842Z,2.80
2018-02-25T08:04:50.051Z,2.60
2018-02-25T08:05:50.264Z,3.00
2018-02-25T08:06:50.476Z,2.80
2018-02-25T08:07:50.688Z,2.70
2018-02-25T08:08:50.899Z,2.70
2018-02-25T08:09:51.110Z,2.70
2018-02-25T08:10:51.322Z,2.80
2018-02-25T08:11:51.534Z,2.50
2018-02-25T08:12:51.746Z,2.80
2018-02-25T08:13:51.957Z,2.80
2018-02-25T08:14:52.173Z,2.60
2018-02-25T08:15:52.379Z,2.60
2018-02-25T08:16:52.594Z,2.60
2018-02-25T08:17:52.802Z,2.70
2018-02-25T08:18:53.015Z,2.50
2018-02-25T08:19:53.226Z,2.60
2018-02-25T08:20:53.441Z,2.80
2018-02-25T08:21:53.648Z,2.70
2018-02-25T08:22:53.865Z,2.80
2018-02-25T08:23:54.069Z,2.70
2018-02-25T08:24:54.280Z,2.70
2018-02-25T08:25:54.490Z,2.70
2018-02-25T08:26:54.702Z,2.50
2018-02-25T08:27:54.914Z,2.70
2018-02-25T08:28:55.125Z,2.50
2018-02-25T08:29:55.337Z,2.60
2018-02-25T08:30:55.541Z,2.80
2018-02-25T08:31:55.760Z,2.80
2018-02-25T08:32:55.971Z,2.80
2018-02-25T08:33:56.183Z,2.60
2018-02-25T08:34:56.395Z,2.70
2018-02-25T08:35:56.608Z,2.60
2018-02-25T08:36:56.817Z,2.60
2018-02-25T08:37:57.054Z,2.20
2018-02-25T08:38:57.240Z,2.90
2018-02-25T08:39:57.452Z,2.70
2018-02-25T08:40:57.663Z,2.50
2018-02-25T08:41:57.887Z,2.70
2018-02-25T08:42:58.085Z,2.50
2018-02-25T08:43:58.298Z,2.60
2018-02-25T08:44:58.509Z,2.90
2018-02-25T08:45:58.720Z,2.90
2018-02-25T08:46:58.930Z,2.70
2018-02-25T08:47:59.143Z,2.70
2018-02-25T08:48:59.354Z,2.80
2018-02-25T08:49:59.564Z,2.30
2018-02-25T08:50:59.776Z,2.60
2018-02-25T08:51:59.987Z,2.70
2018-02-25T08:53:00.200Z,2.60
2018-02-25T08:54:00.412Z,2.60
2018-02-25T08:55:00.623Z,2.70
2018-02-25T08:56:00.845Z,2.70
2018-02-25T08:57:01.046Z,2.60
2018-02-25T08:58:01.256Z,2.50
2018-02-25T08:59:01.469Z,2.60
2018-02-25T09:00:01.682Z,2.50
2018-02-25T09:01:01.894Z,2.70
2018-02-25T09:02:02.105Z,2.50
2018-02-25T09:03:02.317Z,2.80
2018-02-25T09:04:02.529Z,2.60
2018-02-25T09:05:02.742Z,2.60
2018-02-25T09:06:02.954Z,2.80
2018-02-25T09:07:03.197Z,2.70
2018-02-25T09:08:03.375Z,2.50
2018-02-25T09:09:03.587Z,2.50
2018-02-25T09:10:03.798Z,2.40
2018-02-25T09:11:04.016Z,2.60
2018-02-25T09:12:04.224Z,2.70
2018-02-25T09:13:04.432Z,2.80
2018-02-25T09:14:04.655Z,2.70
2018-02-25T09:15:04.875Z,2.90
2018-02-25T09:16:05.077Z,2.60
2018-02-25T09:17:05.297Z,2.40
2018-02-25T09:18:05.509Z,2.80
2018-02-25T09:19:05.720Z,2.60
2018-02-25T09:20:05.932Z,2.60
2018-02-25T09:21:06.143Z,2.40
2018-02-25T09:22:06.363Z,2.60
2018-02-25T09:23:06.572Z,2.90
2018-02-25T09:24:06.794Z,2.50
2018-02-25T09:25:07.007Z,2.70
2018-02-25T09:26:07.210Z,2.80
2018-02-25T09:27:07.419Z,2.60
2018-02-25T09:28:07.630Z,2.60
2018-02-25T09:29:07.846Z,2.60
2018-02-25T09:30:08.037Z,2.70
2018-02-25T09:31:08.247Z,2.30
2018-02-25T09:32:08.459Z,2.50
2018-02-25T09:33:08.703Z,2.30
2018-02-25T09:34:08.879Z,2.60
2018-02-25T09:35:09.090Z,2.70
2018-02-25T09:36:09.302Z,2.80
2018-02-25T09:37:09.513Z,2.40
2018-02-25T09:38:09.725Z,2.50
2018-02-25T09:39:09.936Z,2.50
2018-02-25T09:40:10.148Z,2.60
2018-02-25T09:41:10.401Z,2.60
2018-02-25T09:42:10.605Z,2.30
2018-02-25T09:43:10.796Z,2.70
2018-02-25T09:44:11.010Z,2.50
2018-02-25T09:45:11.218Z,2.60
2018-02-25T09:46:11.428Z,2.50
2018-02-25T09:47:11.676Z,2.80
2018-02-25T09:48:39.768Z,2.60
2018-02-25T09:49:12.234Z,2.70
2018-02-25T09:50:12.443Z,2.40
2018-02-25T09:51:12.656Z,2.70
2018-02-25T09:52:12.870Z,2.40
2018-02-25T09:53:13.084Z,2.70
2018-02-25T09:54:13.295Z,2.70
2018-02-25T09:55:13.507Z,2.30
2018-02-25T09:56:13.718Z,2.60
2018-02-25T09:57:13.930Z,2.50
2018-02-25T09:58:14.142Z,2.60
2018-02-25T09:59:14.354Z,2.50
2018-02-25T10:00:14.564Z,2.70
2018-02-25T10:01:14.780Z,2.50
2018-02-25T10:02:14.990Z,2.60
2018-02-25T10:03:15.201Z,2.40
2018-02-25T10:04:15.413Z,2.10
2018-02-25T10:05:15.625Z,2.70
2018-02-25T10:06:15.860Z,2.40
2018-02-25T10:07:16.070Z,2.60
2018-02-25T10:08:16.288Z,2.80
2018-02-25T10:09:16.497Z,2.70
2018-02-25T10:10:16.711Z,2.50
2018-02-25T10:11:16.919Z,2.70
2018-02-25T10:12:17.131Z,2.60
2018-02-25T10:13:17.347Z,2.50
2018-02-25T10:14:17.616Z,2.60
2018-02-25T10:15:17.767Z,2.60
2018-02-25T10:16:17.978Z,2.60
2018-02-25T10:17:18.190Z,2.40
2018-02-25T10:18:18.400Z,2.50
2018-02-25T10:19:18.612Z,2.30
2018-02-25T10:20:18.823Z,2.40
2018-02-25T10:21:19.034Z,2.70
2018-02-25T10:22:19.246Z,2.50
2018-02-25T10:23:19.457Z,2.40
2018-02-25T10:24:19.668Z,2.20
2018-02-25T10:25:19.880Z,2.50
2018-02-25T10:26:20.096Z,2.40
2018-02-25T10:27:20.303Z,2.60
2018-02-25T10:28:20.515Z,2.60
2018-02-25T10:29:20.727Z,2.60
2018-02-25T10:30:20.939Z,2.50
2018-02-25T10:31:21.153Z,2.50
2018-02-25T10:32:21.364Z,2.60
2018-02-25T10:33:21.569Z,2.50
2018-02-25T10:34:21.782Z,2.50
2018-02-25T10:35:21.991Z,2.50
2018-02-25T10:36:22.204Z,2.30
2018-02-25T10:37:22.419Z,2.40
2018-02-25T10:38:22.626Z,2.50
2018-02-25T10:39:22.840Z,2.40
2018-02-25T10:40:23.047Z,2.40
2018-02-25T10:41:23.261Z,2.40
2018-02-25T10:42:23.474Z,2.40
2018-02-25T10:43:23.684Z,2.20
2018-02-25T10:44:23.896Z,2.60
2018-02-25T10:45:24.109Z,2.40
2018-02-25T10:46:24.319Z,2.20
2018-02-25T10:47:24.536Z,2.60
2018-02-25T10:48:24.742Z,2.50
2018-02-25T10:49:24.954Z,2.40
2018-02-25T10:50:25.170Z,2.30
2018-02-25T10:51:25.378Z,2.40
2018-02-25T10:52:25.589Z,2.40
2018-02-25T10:53:25.801Z,2.30
2018-02-25T10:54:26.012Z,2.80
2018-02-25T10:55:26.223Z,2.70
2018-02-25T10:56:26.436Z,2.60
2018-02-25T10:57:27.014Z,2.40
2018-02-25T10:58:26.996Z,2.30
2018-02-25T10:59:27.207Z,2.40
2018-02-25T11:00:27.414Z,2.20
2018-02-25T11:01:27.622Z,2.30
2018-02-25T11:02:27.838Z,2.30
2018-02-25T11:03:28.037Z,2.40
2018-02-25T11:04:28.484Z,2.30
2018-02-25T11:05:28.459Z,2.30
2018-02-25T11:06:28.673Z,2.10
2018-02-25T11:07:28.880Z,2.50
2018-02-25T11:08:29.092Z,2.30
2018-02-25T11:09:29.304Z,2.40
2018-02-25T11:10:29.515Z,2.30
2018-02-25T11:11:29.728Z,2.20
2018-02-25T11:12:29.938Z,2.20
2018-02-25T11:13:30.149Z,2.30
2018-02-25T11:14:30.365Z,2.60
2018-02-25T11:15:30.612Z,2.30
2018-02-25T11:16:30.794Z,2.50
2018-02-25T11:17:31.003Z,2.20
2018-02-25T11:18:31.215Z,2.60
2018-02-25T11:19:31.426Z,2.30
2018-02-25T11:20:31.639Z,2.50
2018-02-25T11:21:31.849Z,2.10
2018-02-25T11:22:32.061Z,2.10
2018-02-25T11:23:32.287Z,2.40
2018-02-25T11:24:32.489Z,2.30
2018-02-25T11:25:32.701Z,2.20
2018-02-25T11:26:32.911Z,2.60
2018-02-25T11:27:33.123Z,2.30
2018-02-25T11:28:33.335Z,2.40
2018-02-25T11:29:33.546Z,2.30
2018-02-25T11:30:33.757Z,2.40
2018-02-25T11:31:34.048Z,2.40
2018-02-25T11:32:34.183Z,2.50
2018-02-25T11:33:34.392Z,2.30
2018-02-25T11:34:34.603Z,2.30
2018-02-25T11:35:34.813Z,2.50
2018-02-25T11:36:35.069Z,2.30
2018-02-25T11:37:35.238Z,2.30
2018-02-25T11:38:35.450Z,2.40
2018-02-25T11:39:35.660Z,2.30
2018-02-25T11:40:35.869Z,2.20
2018-02-25T11:41:36.081Z,2.40
2018-02-25T11:42:36.292Z,2.50
2018-02-25T11:43:36.503Z,2.50
2018-02-25T11:44:36.718Z,2.10
2018-02-25T11:45:36.927Z,2.30
2018-02-25T11:46:37.141Z,2.20
2018-02-25T11:47:37.349Z,2.50
2018-02-25T11:48:37.563Z,2.40
2018-02-25T11:49:37.774Z,2.30
2018-02-25T11:50:37.988Z,2.10
2018-02-25T11:51:38.197Z,2.30
2018-02-25T11:52:38.412Z,2.50
2018-02-25T11:53:38.620Z,2.10
2018-02-25T11:54:38.831Z,2.10
2018-02-25T11:55:39.044Z,2.20
2018-02-25T11:56:39.271Z,2.30
2018-02-25T11:57:39.483Z,2.30
2018-02-25T11:58:39.684Z,2.40
2018-02-25T11:59:39.897Z,2.20
2018-02-25T12:00:40.120Z,2.30
2018-02-25T12:01:40.331Z,2.30
2018-02-25T12:02:40.541Z,2.30
2018-02-25T12:03:40.753Z,2.20
2018-02-25T12:04:40.964Z,2.20
2018-02-25T12:05:41.176Z,2.30
2018-02-25T12:06:41.387Z,2.50
2018-02-25T12:07:41.599Z,2.40
2018-02-25T12:08:41.812Z,2.40
2018-02-25T12:09:42.024Z,2.10
2018-02-25T12:10:42.224Z,2.20
2018-02-25T12:11:42.433Z,2.30
2018-02-25T12:12:42.645Z,2.20
2018-02-25T12:13:42.857Z,2.10
2018-02-25T12:14:43.068Z,2.00
2018-02-25T12:15:43.289Z,2.10
2018-02-25T12:16:43.490Z,2.10
2018-02-25T12:17:43.701Z,2.10
2018-02-25T12:18:43.913Z,2.30
2018-02-25T12:19:44.125Z,2.30
2018-02-25T12:20:44.340Z,2.30
2018-02-25T12:21:44.547Z,2.10
2018-02-25T12:22:44.758Z,2.10
2018-02-25T12:23:44.970Z,2.20
2018-02-25T12:24:45.182Z,2.30
2018-02-25T12:25:45.394Z,2.00
2018-02-25T12:26:45.606Z,2.00
2018-02-25T12:27:45.824Z,2.10
2018-02-25T12:28:46.030Z,2.10
2018-02-25T12:29:46.246Z,2.10
2018-02-25T12:30:46.452Z,2.00
2018-02-25T12:31:46.665Z,2.20
2018-02-25T12:32:46.877Z,2.10
2018-02-25T12:33:47.089Z,2.10
2018-02-25T12:34:47.300Z,2.40
2018-02-25T12:35:47.525Z,2.20
2018-02-25T12:36:47.729Z,2.20
2018-02-25T12:37:47.938Z,2.10
2018-02-25T12:38:48.149Z,2.30
2018-02-25T12:39:48.364Z,2.10
2018-02-25T12:40:48.575Z,2.10
2018-02-25T12:41:48.784Z,2.20
2018-02-25T12:42:48.994Z,2.20
2018-02-25T12:43:49.201Z,2.00
2018-02-25T12:44:49.414Z,2.10
2018-02-25T12:45:49.625Z,2.20
2018-02-25T12:46:49.837Z,2.00
2018-02-25T12:47:50.048Z,2.40
2018-02-25T12:48:50.257Z,1.90
2018-02-25T12:49:50.471Z,2.00
2018-02-25T12:50:50.681Z,2.00
2018-02-25T12:51:50.891Z,2.00
2018-02-25T12:52:51.117Z,2.10
2018-02-25T12:53:51.316Z,2.20
2018-02-25T12:54:51.530Z,1.90
2018-02-25T12:55:51.741Z,2.00
2018-02-25T12:56:51.953Z,2.10
2018-02-25T12:57:52.166Z,2.10
2018-02-25T12:58:52.378Z,2.30
2018-02-25T12:59:52.593Z,2.00
2018-02-25T13:00:52.803Z,2.20
2018-02-25T13:01:53.028Z,2.00
2018-02-25T13:02:53.226Z,2.30
2018-02-25T13:03:53.451Z,1.80
2018-02-25T13:04:53.662Z,2.10
2018-02-25T13:05:53.866Z,2.10
2018-02-25T13:06:54.076Z,2.00
2018-02-25T13:07:54.287Z,2.10
2018-02-25T13:08:54.499Z,2.10
2018-02-25T13:09:54.711Z,2.00
2018-02-25T13:10:54.923Z,2.20
2018-02-25T13:11:55.149Z,2.40
2018-02-25T13:12:55.356Z,2.00
2018-02-25T13:13:55.558Z,2.00
2018-02-25T13:14:55.779Z,1.90
2018-02-25T13:15:55.991Z,2.40
2018-02-25T13:16:56.202Z,1.90
2018-02-25T13:17:56.405Z,2.20
2018-02-25T13:18:56.614Z,1.90
2018-02-25T13:19:56.825Z,2.00
2018-02-25T13:20:57.038Z,2.20